Time;durP1;ratioP1;P1;durP2;ratioP2;P2;SDS_P1;SDS_P2;PMS_P1;PMS_P2;Temp;Humidity;BMP_temperature;BMP_pressure;BME280_temperature;BME280_humidity;BME280_pressure;Samples;Min_cycle;Max_cycle;Signal;HPM_P1;HPM_P2
2022/04/07 00:00:04;;;;;;;;;;;;;;;9.81;65.58;97141.19;4421392;32;19992;-70
2022/04/07 00:02:30;;;;;;;;;;;;;;;9.80;66.43;97133.28;4420662;32;19972;-70
2022/04/07 00:04:55;;;;;;;;;;;;;;;9.30;66.96;97130.00;4422900;32;20363;-70
2022/04/07 00:07:21;;;;;;;;;;;;;;;9.64;66.39;97132.09;4419341;32;20236;-69
2022/04/07 00:09:47;;;;;;;;;;;;;;;9.26;67.30;97119.03;4420303;32;19981;-69
2022/04/07 00:12:13;;;;;;;;;;;;;;;9.36;65.84;97128.69;4417566;32;19961;-69
2022/04/07 00:14:38;;;;;;;;;;;;;;;9.52;65.29;97125.06;4417334;32;19949;-69
2022/04/07 00:17:04;;;;;;;;;;;;;;;9.56;64.80;97119.16;4416182;32;19969;-69
2022/04/07 00:19:29;;;;;;;;;;;;;;;9.24;66.11;97113.16;4422087;32;19957;-69
2022/04/07 00:21:57;;;;;;;;;;;;;;;9.66;64.33;97104.28;4417025;32;19962;-69
2022/04/07 00:24:23;;;;;;;;;;;;;;;9.60;64.68;97086.72;4417918;32;19989;-69
2022/04/07 00:26:49;;;;;;;;;;;;;;;9.60;64.44;97069.09;4407072;32;20018;-69
2022/04/07 00:29:14;;;;;;;;;;;;;;;9.51;64.71;97069.44;4419605;32;20054;-69
2022/04/07 00:31:40;;;;;;;;;;;;;;;8.95;65.35;97063.34;4418591;32;19949;-69
2022/04/07 00:34:06;;;;;;;;;;;;;;;8.78;66.76;97073.87;4418583;32;20340;-69
2022/04/07 00:36:32;;;;;;;;;;;;;;;8.80;66.82;97076.91;4420704;32;20026;-69
2022/04/07 00:38:57;;;;;;;;;;;;;;;8.80;66.64;97067.75;4417754;32;20391;-69
2022/04/07 00:41:23;;;;;;;;;;;;;;;9.44;64.81;97064.38;4416770;32;19961;-69
2022/04/07 00:43:50;;;;;;;;;;;;;;;8.87;66.97;97070.75;4419042;32;19991;-69
2022/04/07 00:46:15;;;;;;;;;;;;;;;9.57;65.42;97059.69;4419461;32;19953;-69
2022/04/07 00:48:41;;;;;;;;;;;;;;;9.52;64.89;97062.53;4415299;32;20317;-69
2022/04/07 00:51:07;;;;;;;;;;;;;;;9.41;64.99;97051.37;4418372;32;19977;-69
2022/04/07 00:53:33;;;;;;;;;;;;;;;9.32;65.13;97041.22;4416143;32;20286;-69
2022/04/07 00:56:03;;;;;;;;;;;;;;;9.25;65.35;97032.59;4420200;32;19993;-69
2022/04/07 00:58:30;;;;;;;;;;;;;;;9.19;65.65;97029.84;4421968;32;19946;-69
2022/04/07 01:00:56;;;;;;;;;;;;;;;8.74;66.69;97003.28;4415193;32;20431;-69
2022/04/07 01:03:22;;;;;;;;;;;;;;;8.76;66.30;97003.53;4417621;32;19981;-69
2022/04/07 01:05:49;;;;;;;;;;;;;;;8.79;66.48;97013.72;4416420;32;19957;-69
2022/04/07 01:08:14;;;;;;;;;;;;;;;8.84;65.78;97012.19;4414989;32;19987;-69
2022/04/07 01:10:40;;;;;;;;;;;;;;;8.89;64.74;97005.75;4416376;32;19949;-69
2022/04/07 01:13:06;;;;;;;;;;;;;;;8.89;64.20;97003.72;4420530;32;19968;-69
2022/04/07 01:15:32;;;;;;;;;;;;;;;8.92;64.03;96985.09;4417614;32;20008;-69
2022/04/07 01:17:58;;;;;;;;;;;;;;;8.90;64.01;96970.88;4415126;32;20001;-69
2022/04/07 01:20:24;;;;;;;;;;;;;;;8.86;63.31;96973.94;4419653;32;20004;-69
2022/04/07 01:22:51;;;;;;;;;;;;;;;8.74;63.69;96968.91;4416286;32;19976;-69
2022/04/07 01:25:17;;;;;;;;;;;;;;;8.74;63.88;96966.84;4416962;32;20472;-69
2022/04/07 01:27:48;;;;;;;;;;;;;;;8.88;63.12;96957.38;4418817;32;19957;-69
2022/04/07 01:30:15;;;;;;;;;;;;;;;8.93;62.91;96950.94;4402008;32;20319;-70
2022/04/07 01:35:17;;;;;;;;;;;;;;;9.34;61.47;96948.91;3956346;32;15827968;-69
2022/04/07 01:37:44;;;;;;;;;;;;;;;9.34;61.47;96948.91;4434900;32;19961;-69
2022/04/07 01:40:13;;;;;;;;;;;;;;;8.98;61.85;96922.13;4433182;32;20020;-69
2022/04/07 01:42:38;;;;;;;;;;;;;;;8.98;62.39;96930.53;4432456;32;20002;-69
2022/04/07 01:45:05;;;;;;;;;;;;;;;8.94;62.45;96935.66;4435288;32;20347;-69
2022/04/07 01:47:33;;;;;;;;;;;;;;;8.79;62.88;96920.47;4433115;32;19996;-69
2022/04/07 01:50:07;;;;;;;;;;;;;;;9.00;62.33;96899.94;4436202;32;19957;-69
2022/04/07 01:52:34;;;;;;;;;;;;;;;8.95;63.23;96905.56;4434579;32;19964;-69
2022/04/07 01:55:00;;;;;;;;;;;;;;;9.01;63.05;96901.47;4431269;32;19989;-69
2022/04/07 01:57:27;;;;;;;;;;;;;;;9.05;62.85;96876.69;4433100;32;20343;-69
2022/04/07 01:59:52;;;;;;;;;;;;;;;8.91;62.68;96903.06;4430776;32;19954;-69
2022/04/07 02:02:18;;;;;;;;;;;;;;;8.87;63.75;96896.94;4430211;32;19968;-70
2022/04/07 02:07:30;;;;;;;;;;;;;;;8.79;65.41;96875.63;3960919;32;15723542;-69
2022/04/07 02:09:55;;;;;;;;;;;;;;;8.79;65.41;96875.63;4433017;32;19966;-69
2022/04/07 02:12:21;;;;;;;;;;;;;;;8.74;65.46;96876.44;4431520;32;19988;-69
2022/04/07 02:14:48;;;;;;;;;;;;;;;8.84;64.85;96866.41;4430380;32;19961;-69
2022/04/07 02:17:15;;;;;;;;;;;;;;;8.39;65.55;96846.31;4432659;32;19958;-69
2022/04/07 02:19:40;;;;;;;;;;;;;;;8.65;64.87;96845.91;4433566;32;21043;-69
2022/04/07 02:22:06;;;;;;;;;;;;;;;8.45;65.01;96860.28;4431959;32;19949;-69
2022/04/07 02:24:31;;;;;;;;;;;;;;;8.85;64.31;96874.31;4432536;32;20001;-69
2022/04/07 02:26:57;;;;;;;;;;;;;;;8.57;65.04;96856.13;4434768;32;19995;-69
2022/04/07 02:29:22;;;;;;;;;;;;;;;8.42;65.68;96859.28;4433660;32;19946;-69
2022/04/07 02:31:48;;;;;;;;;;;;;;;8.45;65.04;96861.06;4431387;32;19972;-69
2022/04/07 02:34:14;;;;;;;;;;;;;;;8.39;65.29;96859.53;4435177;32;20373;-69
2022/04/07 02:36:39;;;;;;;;;;;;;;;8.40;65.73;96847.81;4434001;32;20370;-69
2022/04/07 02:39:05;;;;;;;;;;;;;;;8.46;65.90;96848.56;4432182;32;19949;-69
2022/04/07 02:41:31;;;;;;;;;;;;;;;8.36;66.73;96868.97;4438246;32;19950;-69
2022/04/07 02:43:57;;;;;;;;;;;;;;;8.29;66.25;96855.53;4437150;32;19979;-69
2022/04/07 02:46:23;;;;;;;;;;;;;;;8.28;65.60;96843.56;4434635;32;20002;-69
2022/04/07 02:48:50;;;;;;;;;;;;;;;8.34;66.01;96880.69;4431058;32;19954;-69
2022/04/07 02:51:15;;;;;;;;;;;;;;;8.38;64.21;96842.00;4426228;32;20403;-69
2022/04/07 02:53:41;;;;;;;;;;;;;;;8.37;64.65;96839.72;4433563;32;19969;-69
2022/04/07 02:56:06;;;;;;;;;;;;;;;8.44;64.44;96823.09;4429175;32;19973;-69
2022/04/07 02:58:31;;;;;;;;;;;;;;;8.39;63.60;96826.72;4428745;32;20372;-69
2022/04/07 03:00:58;;;;;;;;;;;;;;;8.38;63.60;96842.00;4434546;32;20293;-70
2022/04/07 03:03:23;;;;;;;;;;;;;;;8.43;64.13;96829.97;4431081;32;19957;-70
2022/04/07 03:05:50;;;;;;;;;;;;;;;8.44;63.71;96837.09;4429348;32;20005;-70
2022/04/07 03:08:15;;;;;;;;;;;;;;;8.43;64.15;96823.63;4433893;32;20345;-70
2022/04/07 03:10:41;;;;;;;;;;;;;;;8.43;63.74;96799.19;4433640;32;20021;-70
2022/04/07 03:13:07;;;;;;;;;;;;;;;8.46;63.60;96808.56;4432380;32;20194;-70
2022/04/07 03:15:33;;;;;;;;;;;;;;;8.52;63.36;96790.47;4432601;32;19974;-70
2022/04/07 03:17:59;;;;;;;;;;;;;;;9.29;60.68;96770.19;4424912;32;19964;-70
2022/04/07 03:20:24;;;;;;;;;;;;;;;9.52;60.68;96802.34;4417904;32;20259;-70
2022/04/07 03:22:50;;;;;;;;;;;;;;;9.61;59.63;96787.19;4423079;32;19982;-70
2022/04/07 03:25:15;;;;;;;;;;;;;;;9.46;59.70;96781.22;4421119;32;19950;-70
2022/04/07 03:27:41;;;;;;;;;;;;;;;9.48;59.44;96785.03;4419856;32;20000;-70
2022/04/07 03:30:07;;;;;;;;;;;;;;;9.85;58.94;96798.41;4424018;32;20025;-70
2022/04/07 03:32:32;;;;;;;;;;;;;;;9.80;58.70;96776.75;4420597;32;20072;-70
2022/04/07 03:34:58;;;;;;;;;;;;;;;9.79;58.54;96778.78;4419874;32;20408;-70
2022/04/07 03:37:24;;;;;;;;;;;;;;;9.86;58.85;96780.25;4421716;32;19953;-70
2022/04/07 03:39:49;;;;;;;;;;;;;;;9.81;59.73;96784.66;4423995;32;19949;-70
2022/04/07 03:42:15;;;;;;;;;;;;;;;9.45;61.15;96752.41;4420776;32;20430;-70
2022/04/07 03:44:41;;;;;;;;;;;;;;;9.40;61.88;96769.31;4409561;32;19993;-70
2022/04/07 03:47:07;;;;;;;;;;;;;;;9.35;62.38;96775.72;4419793;32;19953;-70
2022/04/07 03:49:33;;;;;;;;;;;;;;;9.09;64.20;96776.25;4419678;32;19991;-69
2022/04/07 03:51:58;;;;;;;;;;;;;;;9.02;65.36;96796.44;4422436;32;20041;-69
2022/04/07 03:54:24;;;;;;;;;;;;;;;8.08;69.68;96787.91;4423113;32;20319;-68
2022/04/07 03:56:49;;;;;;;;;;;;;;;7.70;72.21;96792.37;4422550;32;20447;-68
2022/04/07 03:59:14;;;;;;;;;;;;;;;7.62;73.07;96802.59;4425125;32;19985;-69
2022/04/07 04:01:41;;;;;;;;;;;;;;;7.48;73.74;96814.06;4424236;32;19949;-69
2022/04/07 04:04:06;;;;;;;;;;;;;;;7.40;74.45;96825.00;4426020;32;20313;-69
2022/04/07 04:06:32;;;;;;;;;;;;;;;7.76;73.71;96829.50;4421488;32;20003;-71
2022/04/07 04:08:58;;;;;;;;;;;;;;;7.26;75.03;96811.31;4423082;32;20025;-71
2022/04/07 04:11:24;;;;;;;;;;;;;;;7.17;75.45;96806.75;4426913;32;19970;-71
2022/04/07 04:13:50;;;;;;;;;;;;;;;7.18;75.90;96799.16;4421396;32;19968;-71
2022/04/07 04:16:17;;;;;;;;;;;;;;;7.37;74.14;96786.88;4423586;32;19957;-71
2022/04/07 04:18:43;;;;;;;;;;;;;;;7.11;75.59;96780.84;4420391;32;19957;-71
2022/04/07 04:21:09;;;;;;;;;;;;;;;7.03;75.96;96784.69;4427799;32;20001;-70
2022/04/07 04:23:35;;;;;;;;;;;;;;;7.21;74.76;96775.75;4412475;32;19968;-70
2022/04/07 04:26:01;;;;;;;;;;;;;;;7.28;74.31;96792.00;4426648;32;20294;-69
2022/04/07 04:28:27;;;;;;;;;;;;;;;7.30;74.44;96765.03;4420726;32;19953;-69
2022/04/07 04:30:53;;;;;;;;;;;;;;;7.38;73.74;96793.25;4426511;32;19985;-69
2022/04/07 04:33:18;;;;;;;;;;;;;;;7.33;74.24;96788.44;4427743;32;19987;-70
2022/04/07 04:35:44;;;;;;;;;;;;;;;7.31;74.03;96818.94;4427028;32;20007;-70
2022/04/07 04:38:10;;;;;;;;;;;;;;;7.32;75.50;96812.06;4423515;32;20010;-71
2022/04/07 04:40:35;;;;;;;;;;;;;;;7.31;76.96;96800.13;4416960;32;19986;-71
2022/04/07 04:43:01;;;;;;;;;;;;;;;7.22;78.02;96792.03;4420396;32;19981;-72
2022/04/07 04:45:26;;;;;;;;;;;;;;;7.20;78.87;96794.56;4421207;32;19990;-71
2022/04/07 04:47:52;;;;;;;;;;;;;;;7.37;76.15;96783.34;4420215;32;20012;-71
2022/04/07 04:50:18;;;;;;;;;;;;;;;7.90;74.72;96785.69;4407865;32;20265;-71
2022/04/07 04:52:44;;;;;;;;;;;;;;;7.99;73.86;96785.41;4418879;32;19961;-71
2022/04/07 04:55:09;;;;;;;;;;;;;;;7.25;76.46;96785.41;4415317;32;19991;-71
2022/04/07 04:57:35;;;;;;;;;;;;;;;7.14;76.62;96788.22;4419947;32;19998;-71
2022/04/07 05:00:01;;;;;;;;;;;;;;;7.16;76.97;96776.53;4420337;32;19965;-71
2022/04/07 05:02:26;;;;;;;;;;;;;;;7.19;76.03;96767.13;4420808;32;19952;-71
2022/04/07 05:04:51;;;;;;;;;;;;;;;7.11;75.58;96772.47;4423811;32;20323;-71
2022/04/07 05:07:17;;;;;;;;;;;;;;;7.00;76.59;96761.28;4421193;32;19976;-71
2022/04/07 05:09:42;;;;;;;;;;;;;;;7.91;72.51;96762.03;4421874;32;20291;-71
2022/04/07 05:12:08;;;;;;;;;;;;;;;6.93;75.97;96741.50;4418894;32;19953;-72
2022/04/07 05:14:33;;;;;;;;;;;;;;;6.92;76.70;96739.97;4417167;32;20366;-72
2022/04/07 05:16:59;;;;;;;;;;;;;;;6.93;77.11;96730.34;4418501;32;20042;-71
2022/04/07 05:19:24;;;;;;;;;;;;;;;7.00;77.71;96733.34;4414372;32;19972;-71
2022/04/07 05:21:50;;;;;;;;;;;;;;;7.18;77.18;96740.44;4416114;32;20569;-72
2022/04/07 05:24:17;;;;;;;;;;;;;;;8.11;72.63;96733.69;4417319;32;20322;-72
2022/04/07 05:26:43;;;;;;;;;;;;;;;8.17;72.37;96734.41;4423413;32;19958;-72
2022/04/07 05:29:09;;;;;;;;;;;;;;;8.19;71.99;96768.22;4416795;32;19964;-69
2022/04/07 05:31:34;;;;;;;;;;;;;;;8.06;71.18;96768.06;4423548;32;19996;-69
2022/04/07 05:33:59;;;;;;;;;;;;;;;7.75;71.29;96738.44;4422277;32;20544;-69
2022/04/07 05:36:26;;;;;;;;;;;;;;;7.75;71.01;96744.03;4419378;32;20343;-69
2022/04/07 05:38:52;;;;;;;;;;;;;;;6.69;74.55;96739.22;4414669;32;20538;-69
2022/04/07 05:41:17;;;;;;;;;;;;;;;6.72;74.11;96709.53;4417246;32;20333;-69
2022/04/07 05:43:43;;;;;;;;;;;;;;;6.61;75.62;96729.09;4415696;32;19957;-69
2022/04/07 05:46:08;;;;;;;;;;;;;;;6.88;75.53;96728.31;4415078;32;20048;-68
2022/04/07 05:48:34;;;;;;;;;;;;;;;7.82;72.67;96734.34;4416188;32;20012;-68
2022/04/07 05:50:59;;;;;;;;;;;;;;;8.18;71.58;96730.31;4421531;32;19950;-70
2022/04/07 05:53:25;;;;;;;;;;;;;;;8.22;72.69;96746.84;4418671;32;19990;-70
2022/04/07 05:55:50;;;;;;;;;;;;;;;8.09;72.54;96744.63;4417281;32;19957;-70
2022/04/07 05:58:17;;;;;;;;;;;;;;;7.38;74.72;96746.47;4418682;32;19945;-69
2022/04/07 06:00:43;;;;;;;;;;;;;;;7.45;75.50;96723.56;4414932;32;19968;-70
2022/04/07 06:03:08;;;;;;;;;;;;;;;7.51;75.21;96732.69;4420457;32;19954;-71
2022/04/07 06:05:35;;;;;;;;;;;;;;;7.86;74.13;96741.19;4416782;32;19993;-71
2022/04/07 06:08:01;;;;;;;;;;;;;;;8.52;71.74;96761.66;4414907;32;20097;-71
2022/04/07 06:10:27;;;;;;;;;;;;;;;8.52;70.61;96747.66;4417311;32;19949;-68
2022/04/07 06:12:53;;;;;;;;;;;;;;;8.45;70.67;96756.63;4420652;32;20013;-68
2022/04/07 06:15:18;;;;;;;;;;;;;;;8.58;71.81;96779.97;4419270;32;20012;-69
2022/04/07 06:17:45;;;;;;;;;;;;;;;8.39;72.08;96798.69;4420161;32;20335;-69
2022/04/07 06:20:11;;;;;;;;;;;;;;;8.35;71.51;96773.03;4399953;32;20582;-70
2022/04/07 06:22:37;;;;;;;;;;;;;;;8.17;71.94;96782.75;4415610;32;19994;-70
2022/04/07 06:25:03;;;;;;;;;;;;;;;7.36;75.83;96753.84;4413873;32;19964;-71
2022/04/07 06:27:33;;;;;;;;;;;;;;;7.37;75.59;96789.69;4416623;32;20244;-71
2022/04/07 06:29:59;;;;;;;;;;;;;;;7.25;77.73;96795.81;4420190;32;19964;-71
2022/04/07 06:32:24;;;;;;;;;;;;;;;7.25;77.92;96784.63;4417964;32;19962;-71
2022/04/07 06:34:50;;;;;;;;;;;;;;;7.21;77.31;96806.50;4417860;32;19968;-68
2022/04/07 06:37:16;;;;;;;;;;;;;;;8.04;72.44;96807.75;4419048;32;19971;-68
2022/04/07 06:39:41;;;;;;;;;;;;;;;7.18;76.34;96799.87;4421190;32;20234;-69
2022/04/07 06:42:07;;;;;;;;;;;;;;;7.92;74.54;96788.75;4420564;32;20030;-70
2022/04/07 06:44:32;;;;;;;;;;;;;;;7.42;76.19;96782.56;4416815;32;19972;-70
2022/04/07 06:46:58;;;;;;;;;;;;;;;8.28;73.00;96804.34;4402756;32;20018;-70
2022/04/07 06:49:24;;;;;;;;;;;;;;;8.60;70.76;96793.47;4415572;32;19950;-70
2022/04/07 06:51:49;;;;;;;;;;;;;;;8.73;69.43;96794.38;4415502;32;20011;-70
2022/04/07 06:54:15;;;;;;;;;;;;;;;8.75;69.78;96791.06;4406360;32;20357;-70
2022/04/07 06:56:40;;;;;;;;;;;;;;;8.73;69.07;96800.00;4420788;32;20233;-70
2022/04/07 06:59:06;;;;;;;;;;;;;;;8.87;68.14;96829.69;4423571;32;20175;-72
2022/04/07 07:01:32;;;;;;;;;;;;;;;8.20;69.12;96818.09;4418586;32;20672;-70
2022/04/07 07:04:00;;;;;;;;;;;;;;;8.00;70.19;96814.91;4421977;32;19965;-69
2022/04/07 07:06:25;;;;;;;;;;;;;;;8.11;70.47;96845.66;4419483;32;19963;-70
2022/04/07 07:08:51;;;;;;;;;;;;;;;8.13;69.55;96807.47;4419619;32;19972;-70
2022/04/07 07:11:17;;;;;;;;;;;;;;;8.29;69.13;96810.72;4416999;32;19998;-70
2022/04/07 07:13:43;;;;;;;;;;;;;;;8.38;69.14;96838.44;4408035;32;19992;-70
2022/04/07 07:16:08;;;;;;;;;;;;;;;8.38;69.51;96855.22;4418237;32;19963;-70
2022/04/07 07:18:34;;;;;;;;;;;;;;;8.51;69.44;96856.19;4416566;32;19976;-70
2022/04/07 07:21:00;;;;;;;;;;;;;;;8.98;66.63;96854.06;4419048;32;20008;-70
2022/04/07 07:23:26;;;;;;;;;;;;;;;8.67;68.15;96879.75;4422509;32;19967;-70
2022/04/07 07:25:51;;;;;;;;;;;;;;;8.58;67.70;96875.22;4415261;32;19997;-70
2022/04/07 07:28:17;;;;;;;;;;;;;;;8.88;66.78;96894.91;4420733;32;19986;-70
2022/04/07 07:30:42;;;;;;;;;;;;;;;8.26;69.77;96899.34;4419042;32;20305;-70
2022/04/07 07:33:09;;;;;;;;;;;;;;;8.06;71.71;96874.44;4420345;32;20387;-70
2022/04/07 07:35:35;;;;;;;;;;;;;;;8.02;71.88;96885.13;4422998;32;20008;-70
2022/04/07 07:38:02;;;;;;;;;;;;;;;8.66;70.55;96890.22;4421469;32;20035;-70
2022/04/07 07:40:29;;;;;;;;;;;;;;;8.04;71.54;96882.59;4421909;32;19957;-70
2022/04/07 07:42:56;;;;;;;;;;;;;;;7.93;69.95;96891.78;4420164;32;19973;-70
2022/04/07 07:45:22;;;;;;;;;;;;;;;7.96;70.75;96899.16;4416758;32;20386;-71
2022/04/07 07:47:47;;;;;;;;;;;;;;;8.18;70.94;96889.91;4420448;32;19968;-70
2022/04/07 07:50:13;;;;;;;;;;;;;;;8.27;71.27;96900.09;4420981;32;19993;-71
2022/04/07 07:52:39;;;;;;;;;;;;;;;8.47;71.71;96889.28;4416105;32;19972;-70
2022/04/07 07:55:05;;;;;;;;;;;;;;;8.41;70.60;96932.62;4418553;32;20285;-71
2022/04/07 07:57:30;;;;;;;;;;;;;;;8.57;70.86;96909.38;4419326;32;20607;-71
2022/04/07 07:59:56;;;;;;;;;;;;;;;8.98;68.74;96935.38;4416453;32;19961;-70
2022/04/07 08:02:22;;;;;;;;;;;;;;;8.46;71.69;96931.81;4418959;32;19977;-70
2022/04/07 08:04:47;;;;;;;;;;;;;;;8.48;69.99;96960.87;4417562;32;20006;-71
2022/04/07 08:07:13;;;;;;;;;;;;;;;8.59;69.63;96918.03;4413794;32;20377;-71
2022/04/07 08:09:38;;;;;;;;;;;;;;;9.20;67.14;96943.63;4402428;32;20297;-70
2022/04/07 08:12:04;;;;;;;;;;;;;;;8.60;69.56;96939.94;4423297;32;19953;-70
2022/04/07 08:14:30;;;;;;;;;;;;;;;8.88;67.85;96959.41;4418482;32;19964;-70
2022/04/07 08:16:56;;;;;;;;;;;;;;;8.63;69.64;96958.50;4406231;32;19954;-70
2022/04/07 08:19:22;;;;;;;;;;;;;;;8.69;68.74;96989.31;4417991;32;19980;-70
2022/04/07 08:21:47;;;;;;;;;;;;;;;8.61;67.88;96971.50;4420569;32;19949;-70
2022/04/07 08:24:15;;;;;;;;;;;;;;;8.72;68.68;96979.88;4422855;32;19965;-70
2022/04/07 08:26:41;;;;;;;;;;;;;;;8.73;68.07;96976.53;4416308;32;20072;-70
2022/04/07 08:29:07;;;;;;;;;;;;;;;8.92;69.46;96988.69;4418589;32;19962;-70
2022/04/07 08:31:34;;;;;;;;;;;;;;;9.01;69.29;97002.41;4413939;32;20025;-70
2022/04/07 08:33:59;;;;;;;;;;;;;;;8.94;69.24;96988.16;4415847;32;20668;-70
2022/04/07 08:36:25;;;;;;;;;;;;;;;9.12;68.44;97019.19;4418205;32;19990;-70
2022/04/07 08:38:51;;;;;;;;;;;;;;;9.33;67.95;97023.09;4412952;32;20015;-70
2022/04/07 08:41:17;;;;;;;;;;;;;;;9.61;68.56;97034.91;4417496;32;20365;-70
2022/04/07 08:43:43;;;;;;;;;;;;;;;9.24;67.82;97037.44;4421237;32;20318;-70
2022/04/07 08:46:09;;;;;;;;;;;;;;;9.55;68.00;97069.91;4419154;32;20147;-70
2022/04/07 08:48:36;;;;;;;;;;;;;;;9.04;71.32;97073.50;4419281;32;20418;-70
2022/04/07 08:51:01;;;;;;;;;;;;;;;8.95;68.78;97105.41;4418749;32;20014;-70
2022/04/07 08:53:27;;;;;;;;;;;;;;;8.96;70.69;97132.16;4419599;32;20000;-70
2022/04/07 08:55:52;;;;;;;;;;;;;;;8.30;70.63;97090.28;4419103;32;20414;-72
2022/04/07 08:58:18;;;;;;;;;;;;;;;7.98;71.60;97109.34;4414955;32;19954;-72
2022/04/07 09:00:44;;;;;;;;;;;;;;;8.40;71.95;97093.56;4420218;32;20072;-72
2022/04/07 09:03:10;;;;;;;;;;;;;;;8.38;70.47;97090.50;4420490;32;20332;-72
2022/04/07 09:05:35;;;;;;;;;;;;;;;8.62;70.09;97087.94;4420955;32;20024;-72
2022/04/07 09:08:01;;;;;;;;;;;;;;;8.89;71.20;97118.66;4415194;32;19958;-72
2022/04/07 09:10:28;;;;;;;;;;;;;;;9.16;68.41;97091.81;4419912;32;20299;-71
2022/04/07 09:12:53;;;;;;;;;;;;;;;9.63;66.12;97112.97;4405773;32;19960;-71
2022/04/07 09:15:19;;;;;;;;;;;;;;;10.13;65.58;97128.22;4421621;32;19957;-71
2022/04/07 09:17:53;;;;;;;;;;;;;;;10.40;64.32;97140.53;4405885;32;20040;-71
2022/04/07 09:20:18;;;;;;;;;;;;;;;10.65;63.16;97153.31;4418706;32;20048;-71
2022/04/07 09:22:44;;;;;;;;;;;;;;;10.92;63.13;97143.87;4417156;32;20073;-71
2022/04/07 09:25:10;;;;;;;;;;;;;;;11.77;60.52;97168.47;4416187;32;20015;-71
2022/04/07 09:27:39;;;;;;;;;;;;;;;11.31;63.03;97183.59;4420650;32;19973;-70
2022/04/07 09:30:08;;;;;;;;;;;;;;;8.54;65.17;96941.22;4419454;32;19961;-70
2022/04/07 09:32:39;;;;;;;;;;;;;;;10.17;66.16;97209.41;4419019;32;20051;-70
2022/04/07 09:35:05;;;;;;;;;;;;;;;10.33;66.23;97214.16;4421254;32;19958;-70
2022/04/07 09:37:31;;;;;;;;;;;;;;;9.78;68.79;97214.47;4423932;32;20328;-70
2022/04/07 09:40:05;;;;;;;;;;;;;;;9.80;67.69;97221.09;4403944;32;19957;-70
2022/04/07 09:42:33;;;;;;;;;;;;;;;9.84;67.40;97223.62;4419713;32;20008;-70
2022/04/07 09:45:00;;;;;;;;;;;;;;;9.59;67.12;97231.16;4418752;32;19957;-70
2022/04/07 09:47:42;;;;;;;;;;;;;;;9.96;69.03;97239.91;4410448;32;20001;-70
2022/04/07 09:50:18;;;;;;;;;;;;;;;10.51;68.63;97236.00;4418162;32;19957;-70
2022/04/07 09:52:53;;;;;;;;;;;;;;;10.75;66.13;97238.12;4420800;32;20357;-70
2022/04/07 09:55:19;;;;;;;;;;;;;;;11.02;62.65;97232.22;4418523;32;20301;-69
2022/04/07 09:57:45;;;;;;;;;;;;;;;11.74;61.19;97231.50;4422983;32;19965;-69
2022/04/07 10:00:11;;;;;;;;;;;;;;;11.44;63.33;97231.56;4421154;32;19960;-69
2022/04/07 10:02:37;;;;;;;;;;;;;;;11.82;59.30;97247.25;4424101;32;19993;-70
2022/04/07 10:05:03;;;;;;;;;;;;;;;12.21;58.29;97262.91;4418807;32;20443;-69
2022/04/07 10:07:29;;;;;;;;;;;;;;;12.09;59.38;97256.66;4417596;32;19999;-69
2022/04/07 10:09:55;;;;;;;;;;;;;;;12.48;56.46;97254.03;4422438;32;20035;-70
2022/04/07 10:12:21;;;;;;;;;;;;;;;12.80;55.94;97245.59;4419217;32;19997;-70
2022/04/07 10:14:48;;;;;;;;;;;;;;;12.34;54.69;97254.53;4418301;32;19987;-70
2022/04/07 10:17:14;;;;;;;;;;;;;;;11.91;57.36;97252.50;4424064;32;19958;-70
2022/04/07 10:19:45;;;;;;;;;;;;;;;11.93;58.75;97249.94;4422935;32;19945;-69
2022/04/07 10:22:30;;;;;;;;;;;;;;;12.23;58.22;97265.94;4418669;32;20014;-70
2022/04/07 10:25:00;;;;;;;;;;;;;;;12.33;56.55;97275.56;4416506;32;19969;-69
2022/04/07 10:27:29;;;;;;;;;;;;;;;12.41;55.40;97291.31;4415057;32;19962;-69
2022/04/07 10:30:12;;;;;;;;;;;;;;;12.42;55.90;97287.19;4424422;32;20000;-69
2022/04/07 10:32:39;;;;;;;;;;;;;;;12.47;54.83;97280.72;4422395;32;19993;-69
2022/04/07 10:35:05;;;;;;;;;;;;;;;12.58;54.37;97293.91;4417749;32;20001;-69
2022/04/07 10:37:40;;;;;;;;;;;;;;;12.63;54.80;97279.72;4417241;32;20308;-69
2022/04/07 10:40:26;;;;;;;;;;;;;;;12.78;56.57;97287.69;4424100;32;19957;-69
2022/04/07 10:43:10;;;;;;;;;;;;;;;13.44;54.45;97297.91;4421226;32;20008;-69
2022/04/07 10:45:37;;;;;;;;;;;;;;;13.21;54.89;97314.47;4421002;32;19950;-70
2022/04/07 10:48:18;;;;;;;;;;;;;;;12.78;55.30;97305.38;4421661;32;20023;-70
2022/04/07 10:50:46;;;;;;;;;;;;;;;13.03;54.48;97318.09;4420384;32;19957;-70
2022/04/07 10:53:20;;;;;;;;;;;;;;;12.91;54.77;97310.31;4422699;32;20023;-70
2022/04/07 10:56:06;;;;;;;;;;;;;;;13.10;54.36;97308.25;4424462;32;19996;-70
2022/04/07 10:58:38;;;;;;;;;;;;;;;13.71;53.32;97302.28;4423849;32;19953;-70
2022/04/07 11:01:04;;;;;;;;;;;;;;;13.90;50.21;97305.78;4425506;32;19965;-69
2022/04/07 11:03:30;;;;;;;;;;;;;;;14.00;50.68;97327.38;4424675;32;19964;-70
2022/04/07 11:06:00;;;;;;;;;;;;;;;13.51;51.37;97328.34;4417671;32;19958;-70
2022/04/07 11:08:25;;;;;;;;;;;;;;;14.10;49.45;97364.47;4416651;32;20345;-70
2022/04/07 11:10:53;;;;;;;;;;;;;;;14.44;49.24;97370.25;4421512;32;19965;-69
2022/04/07 11:13:38;;;;;;;;;;;;;;;13.42;53.82;97390.88;4420443;32;20415;-70
2022/04/07 11:16:12;;;;;;;;;;;;;;;11.59;60.22;97383.19;4425793;32;20030;-71
2022/04/07 11:21:42;;;;;;;;;;;;;;;12.03;60.65;97375.06;3954495;32;15726459;-70
2022/04/07 11:24:08;;;;;;;;;;;;;;;12.03;60.65;97375.06;4431336;32;20066;-69
2022/04/07 11:26:34;;;;;;;;;;;;;;;13.43;58.76;97387.53;4431925;32;19968;-69
2022/04/07 11:31:40;;;;;;;;;;;;;;;11.21;60.95;97407.56;3954397;32;15725435;-72
2022/04/07 11:34:26;;;;;;;;;;;;;;;11.21;60.95;97407.56;4427873;32;19957;-70
2022/04/07 11:36:51;;;;;;;;;;;;;;;10.39;64.68;97411.59;4430101;32;20684;-70
2022/04/07 11:39:17;;;;;;;;;;;;;;;10.46;62.67;97390.62;4429699;32;19969;-70
2022/04/07 11:41:43;;;;;;;;;;;;;;;11.45;61.60;97384.34;4429845;32;19957;-70
2022/04/07 11:44:10;;;;;;;;;;;;;;;12.05;58.98;97399.91;4425562;32;19953;-70
2022/04/07 11:46:35;;;;;;;;;;;;;;;12.45;58.46;97381.25;4429888;32;19961;-71
2022/04/07 11:49:01;;;;;;;;;;;;;;;12.75;56.15;97395.97;4427920;32;19950;-71
2022/04/07 11:51:28;;;;;;;;;;;;;;;13.12;56.34;97412.91;4425440;32;19961;-71
2022/04/07 11:53:55;;;;;;;;;;;;;;;13.76;52.67;97418.03;4425223;32;20004;-71
2022/04/07 11:56:25;;;;;;;;;;;;;;;14.05;52.62;97408.50;4427323;32;19980;-71
2022/04/07 11:58:59;;;;;;;;;;;;;;;14.62;49.66;97426.72;4418244;32;19953;-71
2022/04/07 12:01:24;;;;;;;;;;;;;;;15.03;49.19;97449.50;4426482;32;20386;-71
2022/04/07 12:03:51;;;;;;;;;;;;;;;15.05;51.67;97452.56;4430842;32;19960;-71
2022/04/07 12:06:20;;;;;;;;;;;;;;;15.03;48.92;97477.81;4434145;32;19941;-71
2022/04/07 12:08:45;;;;;;;;;;;;;;;14.51;48.81;97468.63;4429176;32;19965;-71
2022/04/07 12:11:11;;;;;;;;;;;;;;;13.20;52.66;97492.87;4430238;32;20268;-71
2022/04/07 12:13:37;;;;;;;;;;;;;;;12.20;60.13;97524.25;4428258;32;20014;-69
2022/04/07 12:16:02;;;;;;;;;;;;;;;11.15;61.30;97510.19;4425319;32;20394;-70
2022/04/07 12:18:30;;;;;;;;;;;;;;;10.82;64.30;97494.22;4417377;32;20232;-70
2022/04/07 12:20:58;;;;;;;;;;;;;;;10.76;62.88;97487.88;4431133;32;20357;-70
2022/04/07 12:23:25;;;;;;;;;;;;;;;11.11;62.09;97487.19;4431160;32;19973;-70
2022/04/07 12:25:56;;;;;;;;;;;;;;;11.61;62.47;97481.97;4432070;32;20481;-70
2022/04/07 12:28:23;;;;;;;;;;;;;;;12.57;59.44;97498.25;4430905;32;20307;-70
2022/04/07 12:30:50;;;;;;;;;;;;;;;13.76;55.69;97524.66;4429786;32;20021;-70
2022/04/07 12:33:35;;;;;;;;;;;;;;;14.41;55.48;97521.25;4414122;32;19976;-70
2022/04/07 12:36:09;;;;;;;;;;;;;;;12.31;58.92;97541.09;4429580;32;19968;-70
2022/04/07 12:38:35;;;;;;;;;;;;;;;11.96;58.74;97569.31;4428992;32;19969;-70
2022/04/07 12:41:09;;;;;;;;;;;;;;;9.67;62.14;97557.75;4427987;32;19986;-70
2022/04/07 12:43:42;;;;;;;;;;;;;;;9.53;64.38;97543.97;4418945;32;20021;-70
2022/04/07 12:46:09;;;;;;;;;;;;;;;9.58;64.20;97565.66;4420540;32;19967;-70
2022/04/07 12:48:35;;;;;;;;;;;;;;;10.05;61.21;97568.25;4413659;32;19962;-70
2022/04/07 12:51:21;;;;;;;;;;;;;;;10.88;59.96;97547.63;4421853;32;19957;-70
2022/04/07 12:53:46;;;;;;;;;;;;;;;11.64;58.04;97548.53;4403371;32;20011;-70
2022/04/07 12:56:20;;;;;;;;;;;;;;;12.36;56.96;97557.16;4417778;32;20005;-70
2022/04/07 12:58:45;;;;;;;;;;;;;;;12.86;55.25;97571.50;4415966;32;19964;-71
2022/04/07 13:01:10;;;;;;;;;;;;;;;13.35;52.74;97575.06;4415608;32;20469;-70